sensor_id;sensor_type;location;lat;lon;timestamp;pressure;altitude;pressure_sealevel;temperature;humidity
25080;BME280;13071;48.868;9.996;2022-09-27T00:00:31;94856.84;;;10.25;97.44
25080;BME280;13071;48.868;9.996;2022-09-27T00:02:59;94839.06;;;10.24;98.74
25080;BME280;13071;48.868;9.996;2022-09-27T00:05:27;94822.50;;;10.29;98.57
25080;BME280;13071;48.868;9.996;2022-09-27T00:07:53;94823.25;;;10.26;99.36
25080;BME280;13071;48.868;9.996;2022-09-27T00:10:20;94816.22;;;10.18;100.00
25080;BME280;13071;48.868;9.996;2022-09-27T00:12:46;94822.75;;;10.17;99.78
25080;BME280;13071;48.868;9.996;2022-09-27T00:15:13;94812.44;;;10.26;98.99
25080;BME280;13071;48.868;9.996;2022-09-27T00:17:40;94811.06;;;10.09;100.00
25080;BME280;13071;48.868;9.996;2022-09-27T00:20:09;94810.25;;;10.05;99.97
25080;BME280;13071;48.868;9.996;2022-09-27T00:22:36;94807.09;;;9.96;100.00
25080;BME280;13071;48.868;9.996;2022-09-27T00:25:03;94801.28;;;9.97;100.00
25080;BME280;13071;48.868;9.996;2022-09-27T00:27:32;94799.47;;;10.05;100.00
25080;BME280;13071;48.868;9.996;2022-09-27T00:29:58;94795.97;;;10.05;100.00
25080;BME280;13071;48.868;9.996;2022-09-27T00:32:25;94798.59;;;9.97;100.00
25080;BME280;13071;48.868;9.996;2022-09-27T00:34:51;94790.59;;;10.08;100.00
25080;BME280;13071;48.868;9.996;2022-09-27T00:37:19;94785.56;;;10.07;100.00
25080;BME280;13071;48.868;9.996;2022-09-27T00:39:46;94785.53;;;10.03;100.00
25080;BME280;13071;48.868;9.996;2022-09-27T00:42:13;94782.91;;;10.10;100.00
25080;BME280;13071;48.868;9.996;2022-09-27T00:44:59;94781.66;;;10.01;100.00
25080;BME280;13071;48.868;9.996;2022-09-27T00:47:31;94773.56;;;10.04;100.00
25080;BME280;13071;48.868;9.996;2022-09-27T00:50:03;94776.13;;;9.90;100.00
25080;BME280;13071;48.868;9.996;2022-09-27T00:52:37;94768.47;;;9.95;100.00
25080;BME280;13071;48.868;9.996;2022-09-27T00:55:11;94759.94;;;9.93;100.00
25080;BME280;13071;48.868;9.996;2022-09-27T00:57:40;94759.81;;;9.83;100.00
25080;BME280;13071;48.868;9.996;2022-09-27T01:00:10;94757.59;;;9.92;100.00
25080;BME280;13071;48.868;9.996;2022-09-27T01:02:41;94754.19;;;9.95;100.00
25080;BME280;13071;48.868;9.996;2022-09-27T01:05:10;94762.66;;;9.93;100.00
25080;BME280;13071;48.868;9.996;2022-09-27T01:07:39;94750.34;;;9.96;100.00
25080;BME280;13071;48.868;9.996;2022-09-27T01:10:06;94748.38;;;9.96;100.00
25080;BME280;13071;48.868;9.996;2022-09-27T01:12:41;94745.41;;;10.05;100.00
25080;BME280;13071;48.868;9.996;2022-09-27T01:15:19;94736.81;;;9.96;100.00
25080;BME280;13071;48.868;9.996;2022-09-27T01:17:57;94744.50;;;9.94;100.00
25080;BME280;13071;48.868;9.996;2022-09-27T01:20:44;94740.19;;;9.86;100.00
25080;BME280;13071;48.868;9.996;2022-09-27T01:23:48;94746.19;;;10.06;100.00
25080;BME280;13071;48.868;9.996;2022-09-27T01:26:29;94727.13;;;9.91;100.00
25080;BME280;13071;48.868;9.996;2022-09-27T01:29:02;94733.69;;;9.90;100.00
25080;BME280;13071;48.868;9.996;2022-09-27T01:31:34;94724.66;;;9.76;100.00
25080;BME280;13071;48.868;9.996;2022-09-27T01:34:06;94730.34;;;10.08;100.00
25080;BME280;13071;48.868;9.996;2022-09-27T01:36:42;94730.25;;;9.97;100.00
25080;BME280;13071;48.868;9.996;2022-09-27T01:39:22;94730.50;;;10.22;100.00
25080;BME280;13071;48.868;9.996;2022-09-27T01:42:00;94711.84;;;10.10;100.00
25080;BME280;13071;48.868;9.996;2022-09-27T01:44:31;94720.72;;;9.70;100.00
25080;BME280;13071;48.868;9.996;2022-09-27T01:47:02;94725.16;;;9.88;100.00
25080;BME280;13071;48.868;9.996;2022-09-27T01:49:33;94719.09;;;10.02;100.00
25080;BME280;13071;48.868;9.996;2022-09-27T01:52:03;94723.69;;;9.94;100.00
25080;BME280;13071;48.868;9.996;2022-09-27T01:54:34;94731.41;;;9.96;100.00
25080;BME280;13071;48.868;9.996;2022-09-27T01:57:04;94722.06;;;9.86;100.00
25080;BME280;13071;48.868;9.996;2022-09-27T01:59:35;94718.38;;;10.05;100.00
25080;BME280;13071;48.868;9.996;2022-09-27T02:02:07;94713.69;;;9.98;100.00
25080;BME280;13071;48.868;9.996;2022-09-27T02:04:39;94702.19;;;10.09;100.00
25080;BME280;13071;48.868;9.996;2022-09-27T02:07:10;94707.09;;;9.96;100.00
25080;BME280;13071;48.868;9.996;2022-09-27T02:09:43;94710.06;;;9.84;100.00
25080;BME280;13071;48.868;9.996;2022-09-27T02:12:13;94703.53;;;9.88;100.00
25080;BME280;13071;48.868;9.996;2022-09-27T02:14:43;94697.25;;;9.77;100.00
25080;BME280;13071;48.868;9.996;2022-09-27T02:17:21;94713.63;;;9.91;100.00
25080;BME280;13071;48.868;9.996;2022-09-27T02:19:53;94711.66;;;9.92;100.00
25080;BME280;13071;48.868;9.996;2022-09-27T02:22:31;94707.03;;;9.89;100.00
25080;BME280;13071;48.868;9.996;2022-09-27T02:25:05;94715.34;;;10.10;100.00
25080;BME280;13071;48.868;9.996;2022-09-27T02:27:41;94709.53;;;10.08;100.00
25080;BME280;13071;48.868;9.996;2022-09-27T02:30:13;94700.63;;;10.08;100.00
25080;BME280;13071;48.868;9.996;2022-09-27T02:32:42;94704.88;;;10.05;100.00
25080;BME280;13071;48.868;9.996;2022-09-27T02:35:12;94710.31;;;10.12;100.00
25080;BME280;13071;48.868;9.996;2022-09-27T02:37:41;94705.38;;;10.18;100.00
25080;BME280;13071;48.868;9.996;2022-09-27T02:40:08;94706.44;;;10.06;100.00
25080;BME280;13071;48.868;9.996;2022-09-27T02:42:36;94707.50;;;10.02;100.00
25080;BME280;13071;48.868;9.996;2022-09-27T02:45:04;94708.28;;;9.98;100.00
25080;BME280;13071;48.868;9.996;2022-09-27T02:47:45;94704.81;;;10.02;100.00
25080;BME280;13071;48.868;9.996;2022-09-27T02:50:28;94712.25;;;10.12;100.00
25080;BME280;13071;48.868;9.996;2022-09-27T02:53:02;94711.59;;;10.22;100.00
25080;BME280;13071;48.868;9.996;2022-09-27T02:55:39;94710.00;;;10.17;100.00
25080;BME280;13071;48.868;9.996;2022-09-27T02:58:18;94717.56;;;10.01;100.00
25080;BME280;13071;48.868;9.996;2022-09-27T03:00:52;94718.28;;;9.94;100.00
25080;BME280;13071;48.868;9.996;2022-09-27T03:03:26;94705.22;;;10.04;100.00
25080;BME280;13071;48.868;9.996;2022-09-27T03:06:01;94708.97;;;9.92;100.00
25080;BME280;13071;48.868;9.996;2022-09-27T03:08:29;94719.78;;;9.92;100.00
25080;BME280;13071;48.868;9.996;2022-09-27T03:10:56;94717.75;;;9.82;100.00
25080;BME280;13071;48.868;9.996;2022-09-27T03:13:22;94713.63;;;9.91;100.00
25080;BME280;13071;48.868;9.996;2022-09-27T03:15:49;94713.97;;;9.86;100.00
25080;BME280;13071;48.868;9.996;2022-09-27T03:18:16;94716.28;;;9.88;100.00
25080;BME280;13071;48.868;9.996;2022-09-27T03:20:44;94720.91;;;9.87;100.00
25080;BME280;13071;48.868;9.996;2022-09-27T03:23:11;94725.81;;;9.78;100.00
25080;BME280;13071;48.868;9.996;2022-09-27T03:25:37;94721.56;;;9.77;100.00
25080;BME280;13071;48.868;9.996;2022-09-27T03:28:04;94736.97;;;9.73;100.00
25080;BME280;13071;48.868;9.996;2022-09-27T03:30:31;94737.06;;;9.84;100.00
25080;BME280;13071;48.868;9.996;2022-09-27T03:32:57;94735.16;;;9.84;100.00
25080;BME280;13071;48.868;9.996;2022-09-27T03:35:24;94738.66;;;9.88;100.00
25080;BME280;13071;48.868;9.996;2022-09-27T03:37:52;94738.28;;;9.86;100.00
25080;BME280;13071;48.868;9.996;2022-09-27T03:40:18;94741.56;;;9.69;100.00
25080;BME280;13071;48.868;9.996;2022-09-27T03:42:45;94731.56;;;9.73;100.00
25080;BME280;13071;48.868;9.996;2022-09-27T03:45:14;94759.28;;;9.67;100.00
25080;BME280;13071;48.868;9.996;2022-09-27T03:47:40;94753.56;;;9.72;100.00
25080;BME280;13071;48.868;9.996;2022-09-27T03:50:08;94749.97;;;9.64;100.00
25080;BME280;13071;48.868;9.996;2022-09-27T03:52:35;94761.16;;;9.63;100.00
25080;BME280;13071;48.868;9.996;2022-09-27T03:55:04;94757.59;;;9.55;100.00
25080;BME280;13071;48.868;9.996;2022-09-27T03:57:31;94759.41;;;9.47;100.00
25080;BME280;13071;48.868;9.996;2022-09-27T03:59:58;94762.44;;;9.42;100.00
25080;BME280;13071;48.868;9.996;2022-09-27T04:02:24;94762.53;;;9.49;100.00
25080;BME280;13071;48.868;9.996;2022-09-27T04:04:51;94756.28;;;9.42;100.00
25080;BME280;13071;48.868;9.996;2022-09-27T04:07:18;94763.13;;;9.32;100.00
25080;BME280;13071;48.868;9.996;2022-09-27T04:09:45;94766.56;;;9.33;100.00
25080;BME280;13071;48.868;9.996;2022-09-27T04:12:13;94763.22;;;9.43;100.00
25080;BME280;13071;48.868;9.996;2022-09-27T04:14:39;94757.66;;;9.29;100.00
25080;BME280;13071;48.868;9.996;2022-09-27T04:17:06;94766.94;;;9.31;100.00
25080;BME280;13071;48.868;9.996;2022-09-27T04:19:32;94763.13;;;9.32;100.00
25080;BME280;13071;48.868;9.996;2022-09-27T04:22:00;94758.03;;;9.27;100.00
25080;BME280;13071;48.868;9.996;2022-09-27T04:24:26;94767.31;;;9.30;100.00
25080;BME280;13071;48.868;9.996;2022-09-27T04:26:53;94764.97;;;9.28;100.00
25080;BME280;13071;48.868;9.996;2022-09-27T04:29:22;94773.47;;;9.30;100.00
25080;BME280;13071;48.868;9.996;2022-09-27T04:31:49;94777.50;;;9.43;100.00
25080;BME280;13071;48.868;9.996;2022-09-27T04:34:16;94773.94;;;9.36;100.00
25080;BME280;13071;48.868;9.996;2022-09-27T04:36:42;94779.03;;;9.41;100.00
25080;BME280;13071;48.868;9.996;2022-09-27T04:39:09;94779.41;;;9.43;100.00
25080;BME280;13071;48.868;9.996;2022-09-27T04:41:36;94784.00;;;9.39;100.00
25080;BME280;13071;48.868;9.996;2022-09-27T04:44:02;94776.16;;;9.27;100.00
25080;BME280;13071;48.868;9.996;2022-09-27T04:46:32;94789.31;;;9.32;100.00
25080;BME280;13071;48.868;9.996;2022-09-27T04:48:59;94786.63;;;9.32;100.00
25080;BME280;13071;48.868;9.996;2022-09-27T04:51:26;94791.69;;;9.37;100.00
25080;BME280;13071;48.868;9.996;2022-09-27T04:53:54;94791.13;;;9.24;100.00
25080;BME280;13071;48.868;9.996;2022-09-27T04:56:21;94792.97;;;9.17;100.00
25080;BME280;13071;48.868;9.996;2022-09-27T04:58:48;94798.72;;;9.15;100.00
25080;BME280;13071;48.868;9.996;2022-09-27T05:01:14;94798.72;;;9.15;100.00
25080;BME280;13071;48.868;9.996;2022-09-27T05:03:42;94809.53;;;9.15;100.00
25080;BME280;13071;48.868;9.996;2022-09-27T05:06:09;94804.91;;;9.16;100.00
25080;BME280;13071;48.868;9.996;2022-09-27T05:08:35;94812.38;;;9.26;100.00
25080;BME280;13071;48.868;9.996;2022-09-27T05:11:02;94816.97;;;9.25;100.00
25080;BME280;13071;48.868;9.996;2022-09-27T05:13:29;94824.63;;;9.20;100.00
25080;BME280;13071;48.868;9.996;2022-09-27T05:16:01;94821.91;;;9.20;100.00
25080;BME280;13071;48.868;9.996;2022-09-27T05:18:28;94825.25;;;9.09;100.00
25080;BME280;13071;48.868;9.996;2022-09-27T05:20:56;94818.75;;;9.14;100.00
25080;BME280;13071;48.868;9.996;2022-09-27T05:23:23;94831.00;;;9.08;100.00
25080;BME280;13071;48.868;9.996;2022-09-27T05:25:50;94831.41;;;9.10;100.00
25080;BME280;13071;48.868;9.996;2022-09-27T05:28:20;94836.84;;;9.14;100.00
25080;BME280;13071;48.868;9.996;2022-09-27T05:30:46;94833.84;;;9.19;100.00
25080;BME280;13071;48.868;9.996;2022-09-27T05:33:13;94845.66;;;9.07;100.00
25080;BME280;13071;48.868;9.996;2022-09-27T05:35:39;94838.22;;;9.00;100.00
25080;BME280;13071;48.868;9.996;2022-09-27T05:38:08;94843.03;;;9.14;100.00
25080;BME280;13071;48.868;9.996;2022-09-27T05:40:34;94852.53;;;9.04;100.00
25080;BME280;13071;48.868;9.996;2022-09-27T05:43:01;94851.41;;;9.05;100.00
25080;BME280;13071;48.868;9.996;2022-09-27T05:45:28;94849.56;;;9.13;100.00
25080;BME280;13071;48.868;9.996;2022-09-27T05:47:56;94848.56;;;9.21;100.00
25080;BME280;13071;48.868;9.996;2022-09-27T05:50:23;94848.09;;;9.16;100.00
25080;BME280;13071;48.868;9.996;2022-09-27T05:52:50;94842.69;;;9.16;100.00
25080;BME280;13071;48.868;9.996;2022-09-27T05:55:19;94855.91;;;9.24;100.00
25080;BME280;13071;48.868;9.996;2022-09-27T05:57:56;94856.34;;;9.26;100.00
25080;BME280;13071;48.868;9.996;2022-09-27T06:00:23;94862.09;;;9.25;100.00
25080;BME280;13071;48.868;9.996;2022-09-27T06:02:54;94869.56;;;9.08;100.00
25080;BME280;13071;48.868;9.996;2022-09-27T06:05:22;94864.94;;;9.09;100.00
25080;BME280;13071;48.868;9.996;2022-09-27T06:07:49;94868.88;;;9.15;100.00
25080;BME280;13071;48.868;9.996;2022-09-27T06:10:16;94873.47;;;9.11;100.00
25080;BME280;13071;48.868;9.996;2022-09-27T06:12:44;94870.63;;;9.04;100.00
25080;BME280;13071;48.868;9.996;2022-09-27T06:15:11;94881.13;;;9.09;100.00
25080;BME280;13071;48.868;9.996;2022-09-27T06:17:39;94883.13;;;9.12;100.00
25080;BME280;13071;48.868;9.996;2022-09-27T06:20:06;94880.34;;;9.08;100.00
25080;BME280;13071;48.868;9.996;2022-09-27T06:22:33;94889.13;;;9.02;100.00
25080;BME280;13071;48.868;9.996;2022-09-27T06:25:00;94893.44;;;9.06;100.00
25080;BME280;13071;48.868;9.996;2022-09-27T06:27:28;94888.09;;;9.10;100.00
25080;BME280;13071;48.868;9.996;2022-09-27T06:29:56;94898.75;;;9.03;100.00
25080;BME280;13071;48.868;9.996;2022-09-27T06:32:22;94894.25;;;9.10;100.00
25080;BME280;13071;48.868;9.996;2022-09-27T06:34:49;94898.84;;;9.06;100.00
25080;BME280;13071;48.868;9.996;2022-09-27T06:37:16;94895.75;;;9.08;100.00
25080;BME280;13071;48.868;9.996;2022-09-27T06:39:42;94897.56;;;9.00;100.00
25080;BME280;13071;48.868;9.996;2022-09-27T06:42:09;94906.09;;;9.02;100.00
25080;BME280;13071;48.868;9.996;2022-09-27T06:44:36;94905.09;;;8.88;100.00
25080;BME280;13071;48.868;9.996;2022-09-27T06:47:04;94907.34;;;8.86;100.00
25080;BME280;13071;48.868;9.996;2022-09-27T06:49:30;94913.94;;;8.88;100.00
25080;BME280;13071;48.868;9.996;2022-09-27T06:51:57;94910.88;;;8.90;100.00
25080;BME280;13071;48.868;9.996;2022-09-27T06:54:24;94919.91;;;8.78;100.00
25080;BME280;13071;48.868;9.996;2022-09-27T06:56:50;94913.00;;;8.77;100.00
25080;BME280;13071;48.868;9.996;2022-09-27T06:59:17;94915.31;;;8.79;100.00
25080;BME280;13071;48.868;9.996;2022-09-27T07:02:01;94926.03;;;8.75;100.00
25080;BME280;13071;48.868;9.996;2022-09-27T07:04:30;94925.69;;;8.77;100.00
25080;BME280;13071;48.868;9.996;2022-09-27T07:06:57;94936.19;;;8.82;100.00
25080;BME280;13071;48.868;9.996;2022-09-27T07:09:24;94939.06;;;8.92;100.00
25080;BME280;13071;48.868;9.996;2022-09-27T07:11:50;94936.44;;;8.96;100.00
25080;BME280;13071;48.868;9.996;2022-09-27T07:14:19;94938.56;;;9.09;100.00
25080;BME280;13071;48.868;9.996;2022-09-27T07:16:46;94944.63;;;9.26;99.06
25080;BME280;13071;48.868;9.996;2022-09-27T07:19:13;94950.97;;;9.37;99.71
25080;BME280;13071;48.868;9.996;2022-09-27T07:21:41;94955.28;;;9.41;99.69
25080;BME280;13071;48.868;9.996;2022-09-27T07:24:07;94958.59;;;9.31;98.40
25080;BME280;13071;48.868;9.996;2022-09-27T07:26:34;94970.06;;;9.25;99.40
25080;BME280;13071;48.868;9.996;2022-09-27T07:29:00;94961.44;;;9.16;99.62
25080;BME280;13071;48.868;9.996;2022-09-27T07:31:27;94966.81;;;9.16;100.00
25080;BME280;13071;48.868;9.996;2022-09-27T07:33:54;94974.50;;;9.14;100.00
25080;BME280;13071;48.868;9.996;2022-09-27T07:36:20;94970.34;;;9.20;100.00
25080;BME280;13071;48.868;9.996;2022-09-27T07:38:49;94974.28;;;9.22;100.00
25080;BME280;13071;48.868;9.996;2022-09-27T07:41:16;94984.03;;;9.30;100.00
25080;BME280;13071;48.868;9.996;2022-09-27T07:43:42;94984.75;;;9.27;100.00
25080;BME280;13071;48.868;9.996;2022-09-27T07:46:09;94985.94;;;9.30;100.00
25080;BME280;13071;48.868;9.996;2022-09-27T07:48:37;94992.88;;;9.27;100.00
25080;BME280;13071;48.868;9.996;2022-09-27T07:51:05;94998.00;;;9.36;100.00
25080;BME280;13071;48.868;9.996;2022-09-27T07:53:35;94991.09;;;9.38;99.00
25080;BME280;13071;48.868;9.996;2022-09-27T07:56:03;94999.63;;;9.40;98.97
25080;BME280;13071;48.868;9.996;2022-09-27T07:58:30;95000.09;;;9.46;98.63
25080;BME280;13071;48.868;9.996;2022-09-27T08:00:58;94993.31;;;9.33;97.20
25080;BME280;13071;48.868;9.996;2022-09-27T08:03:24;95009.81;;;9.28;98.32
25080;BME280;13071;48.868;9.996;2022-09-27T08:05:51;95012.88;;;9.26;98.31
25080;BME280;13071;48.868;9.996;2022-09-27T08:08:17;95009.47;;;9.29;97.13
25080;BME280;13071;48.868;9.996;2022-09-27T08:10:44;95017.25;;;9.34;96.42
25080;BME280;13071;48.868;9.996;2022-09-27T08:13:13;95010.59;;;9.51;96.28
25080;BME280;13071;48.868;9.996;2022-09-27T08:15:42;95027.59;;;9.78;96.16
25080;BME280;13071;48.868;9.996;2022-09-27T08:18:08;95026.09;;;10.07;97.03
25080;BME280;13071;48.868;9.996;2022-09-27T08:20:35;95019.53;;;10.08;94.89
25080;BME280;13071;48.868;9.996;2022-09-27T08:23:02;95030.38;;;9.81;94.32
25080;BME280;13071;48.868;9.996;2022-09-27T08:25:29;95022.97;;;9.52;95.65
25080;BME280;13071;48.868;9.996;2022-09-27T08:27:56;95029.44;;;9.47;96.60
25080;BME280;13071;48.868;9.996;2022-09-27T08:30:25;95042.22;;;9.50;96.46
25080;BME280;13071;48.868;9.996;2022-09-27T08:32:54;95038.91;;;9.61;96.95
25080;BME280;13071;48.868;9.996;2022-09-27T08:35:21;95037.31;;;9.82;97.05
25080;BME280;13071;48.868;9.996;2022-09-27T08:37:52;95047.72;;;9.80;95.39
25080;BME280;13071;48.868;9.996;2022-09-27T08:40:20;95052.91;;;9.92;95.36
25080;BME280;13071;48.868;9.996;2022-09-27T08:42:56;95050.94;;;9.89;94.96
25080;BME280;13071;48.868;9.996;2022-09-27T08:45:29;95050.38;;;10.03;95.80
25080;BME280;13071;48.868;9.996;2022-09-27T08:47:59;95056.69;;;10.11;95.81
25080;BME280;13071;48.868;9.996;2022-09-27T08:50:29;95056.56;;;10.04;94.33
25080;BME280;13071;48.868;9.996;2022-09-27T08:53:01;95061.34;;;10.14;95.35
25080;BME280;13071;48.868;9.996;2022-09-27T08:55:32;95053.06;;;10.03;94.17
25080;BME280;13071;48.868;9.996;2022-09-27T08:58:08;95056.69;;;9.88;94.00
25080;BME280;13071;48.868;9.996;2022-09-27T09:00:39;95064.81;;;10.14;94.27
25080;BME280;13071;48.868;9.996;2022-09-27T09:03:15;95063.53;;;10.05;92.31
25080;BME280;13071;48.868;9.996;2022-09-27T09:05:50;95077.31;;;10.22;94.47
25080;BME280;13071;48.868;9.996;2022-09-27T09:08:28;95062.38;;;10.06;91.63
25080;BME280;13071;48.868;9.996;2022-09-27T09:11:00;95065.41;;;9.78;91.91
25080;BME280;13071;48.868;9.996;2022-09-27T09:14:20;95072.59;;;9.93;93.63
25080;BME280;13071;48.868;9.996;2022-09-27T09:17:01;95071.91;;;9.96;94.43
25080;BME280;13071;48.868;9.996;2022-09-27T09:19:43;95064.31;;;10.05;95.46
25080;BME280;13071;48.868;9.996;2022-09-27T09:22:26;95066.41;;;9.92;93.49
25080;BME280;13071;48.868;9.996;2022-09-27T09:25:04;95073.75;;;9.92;93.29
25080;BME280;13071;48.868;9.996;2022-09-27T09:27:40;95076.09;;;9.93;94.75
25080;BME280;13071;48.868;9.996;2022-09-27T09:30:18;95072.34;;;10.02;93.13
25080;BME280;13071;48.868;9.996;2022-09-27T09:32:58;95065.13;;;10.09;91.03
25080;BME280;13071;48.868;9.996;2022-09-27T09:35:34;95062.97;;;10.18;92.47
25080;BME280;13071;48.868;9.996;2022-09-27T09:38:05;95079.41;;;10.32;91.84
25080;BME280;13071;48.868;9.996;2022-09-27T09:40:39;95076.00;;;10.13;88.72
25080;BME280;13071;48.868;9.996;2022-09-27T09:43:12;95067.75;;;10.28;88.80
25080;BME280;13071;48.868;9.996;2022-09-27T09:45:44;95068.53;;;10.29;88.58
25080;BME280;13071;48.868;9.996;2022-09-27T09:48:20;95080.69;;;10.42;89.47
25080;BME280;13071;48.868;9.996;2022-09-27T09:50:52;95084.50;;;10.37;89.22
25080;BME280;13071;48.868;9.996;2022-09-27T09:53:22;95081.13;;;10.44;86.87
25080;BME280;13071;48.868;9.996;2022-09-27T09:55:56;95077.31;;;10.49;89.24
25080;BME280;13071;48.868;9.996;2022-09-27T09:58:29;95076.75;;;10.66;86.53
25080;BME280;13071;48.868;9.996;2022-09-27T10:01:07;95075.03;;;10.51;86.86
25080;BME280;13071;48.868;9.996;2022-09-27T10:03:38;95079.34;;;10.55;87.53
25080;BME280;13071;48.868;9.996;2022-09-27T10:06:05;95083.56;;;10.56;87.91
25080;BME280;13071;48.868;9.996;2022-09-27T10:08:32;95080.16;;;10.59;88.18
25080;BME280;13071;48.868;9.996;2022-09-27T10:10:59;95073.84;;;10.81;90.53
25080;BME280;13071;48.868;9.996;2022-09-27T10:13:26;95067.97;;;10.76;87.07
25080;BME280;13071;48.868;9.996;2022-09-27T10:16:00;95075.50;;;10.90;87.66
25080;BME280;13071;48.868;9.996;2022-09-27T10:18:29;95075.06;;;11.21;87.69
25080;BME280;13071;48.868;9.996;2022-09-27T10:20:59;95073.59;;;11.27;86.01
25080;BME280;13071;48.868;9.996;2022-09-27T10:23:27;95089.25;;;11.07;83.47
25080;BME280;13071;48.868;9.996;2022-09-27T10:25:56;95096.28;;;10.82;85.40
25080;BME280;13071;48.868;9.996;2022-09-27T10:28:33;95083.66;;;10.60;86.34
25080;BME280;13071;48.868;9.996;2022-09-27T10:31:03;95104.41;;;10.52;89.42
25080;BME280;13071;48.868;9.996;2022-09-27T10:33:31;95096.13;;;10.42;90.49
25080;BME280;13071;48.868;9.996;2022-09-27T10:36:00;95092.72;;;10.45;91.24
25080;BME280;13071;48.868;9.996;2022-09-27T10:38:29;95101.28;;;10.50;90.21
25080;BME280;13071;48.868;9.996;2022-09-27T10:40:58;95083.97;;;10.55;89.23
25080;BME280;13071;48.868;9.996;2022-09-27T10:43:40;95085.16;;;10.91;91.48
25080;BME280;13071;48.868;9.996;2022-09-27T10:46:20;95082.34;;;11.13;89.34
25080;BME280;13071;48.868;9.996;2022-09-27T10:49:07;95079.69;;;11.17;86.58
25080;BME280;13071;48.868;9.996;2022-09-27T10:51:38;95083.66;;;11.26;87.01
25080;BME280;13071;48.868;9.996;2022-09-27T10:54:17;95078.13;;;11.53;86.21
25080;BME280;13071;48.868;9.996;2022-09-27T10:56:53;95067.91;;;11.80;87.32
25080;BME280;13071;48.868;9.996;2022-09-27T10:59:20;95067.06;;;11.72;83.55
25080;BME280;13071;48.868;9.996;2022-09-27T11:01:48;95075.53;;;11.67;81.69
25080;BME280;13071;48.868;9.996;2022-09-27T11:04:19;95062.00;;;11.70;80.99
25080;BME280;13071;48.868;9.996;2022-09-27T11:06:48;95071.69;;;11.72;80.52
25080;BME280;13071;48.868;9.996;2022-09-27T11:09:18;95074.41;;;11.72;80.20
25080;BME280;13071;48.868;9.996;2022-09-27T11:11:47;95079.25;;;11.89;81.76
25080;BME280;13071;48.868;9.996;2022-09-27T11:14:22;95077.38;;;12.00;81.72
25080;BME280;13071;48.868;9.996;2022-09-27T11:17:06;95077.88;;;12.13;82.31
25080;BME280;13071;48.868;9.996;2022-09-27T11:19:51;95066.78;;;12.35;81.01
25080;BME280;13071;48.868;9.996;2022-09-27T11:22:37;95073.47;;;12.52;83.17
25080;BME280;13071;48.868;9.996;2022-09-27T11:25:17;95067.25;;;12.51;79.16
25080;BME280;13071;48.868;9.996;2022-09-27T11:27:58;95066.44;;;12.44;80.19
25080;BME280;13071;48.868;9.996;2022-09-27T11:30:29;95062.13;;;12.39;80.03
25080;BME280;13071;48.868;9.996;2022-09-27T11:33:16;95068.34;;;12.40;81.58
25080;BME280;13071;48.868;9.996;2022-09-27T11:35:58;95057.84;;;12.35;81.38
25080;BME280;13071;48.868;9.996;2022-09-27T11:38:31;95058.63;;;12.35;80.34
25080;BME280;13071;48.868;9.996;2022-09-27T11:41:13;95058.22;;;12.30;82.63
25080;BME280;13071;48.868;9.996;2022-09-27T11:44:06;95058.13;;;12.19;84.48
25080;BME280;13071;48.868;9.996;2022-09-27T11:46:38;95059.75;;;11.73;83.76
25080;BME280;13071;48.868;9.996;2022-09-27T11:49:18;95066.03;;;11.43;85.45
25080;BME280;13071;48.868;9.996;2022-09-27T11:52:00;95056.56;;;11.26;86.68
25080;BME280;13071;48.868;9.996;2022-09-27T11:54:42;95046.84;;;11.22;87.56
25080;BME280;13071;48.868;9.996;2022-09-27T11:57:17;95053.41;;;11.21;87.97
25080;BME280;13071;48.868;9.996;2022-09-27T12:03:03;95042.47;;;11.10;89.85
25080;BME280;13071;48.868;9.996;2022-09-27T12:05:43;95035.41;;;10.99;91.03
25080;BME280;13071;48.868;9.996;2022-09-27T12:08:32;95044.13;;;11.18;90.03
25080;BME280;13071;48.868;9.996;2022-09-27T12:11:09;95039.09;;;11.20;89.10
25080;BME280;13071;48.868;9.996;2022-09-27T12:13:40;95031.06;;;11.27;90.56
25080;BME280;13071;48.868;9.996;2022-09-27T12:16:09;95027.44;;;11.53;88.85
25080;BME280;13071;48.868;9.996;2022-09-27T12:18:39;95026.66;;;11.56;89.08
25080;BME280;13071;48.868;9.996;2022-09-27T12:21:08;95017.53;;;11.75;88.94
25080;BME280;13071;48.868;9.996;2022-09-27T12:23:38;95015.34;;;11.91;87.87
25080;BME280;13071;48.868;9.996;2022-09-27T12:26:10;95007.72;;;12.07;85.13
25080;BME280;13071;48.868;9.996;2022-09-27T12:28:43;95002.38;;;12.25;84.91
25080;BME280;13071;48.868;9.996;2022-09-27T12:31:15;94999.38;;;12.44;84.50
25080;BME280;13071;48.868;9.996;2022-09-27T12:33:48;94988.88;;;12.32;83.17
25080;BME280;13071;48.868;9.996;2022-09-27T12:36:22;94976.13;;;12.43;82.65
25080;BME280;13071;48.868;9.996;2022-09-27T12:38:55;94969.22;;;12.57;83.53
25080;BME280;13071;48.868;9.996;2022-09-27T12:41:30;94982.00;;;12.60;83.52
25080;BME280;13071;48.868;9.996;2022-09-27T12:44:00;94979.66;;;12.51;84.04
25080;BME280;13071;48.868;9.996;2022-09-27T12:46:33;94984.97;;;12.30;84.74
25080;BME280;13071;48.868;9.996;2022-09-27T12:49:05;94992.25;;;12.11;83.49
25080;BME280;13071;48.868;9.996;2022-09-27T12:51:37;95014.59;;;11.50;85.76
25080;BME280;13071;48.868;9.996;2022-09-27T12:54:21;95056.19;;;10.31;90.41
25080;BME280;13071;48.868;9.996;2022-09-27T12:56:56;95060.19;;;8.97;97.43
25080;BME280;13071;48.868;9.996;2022-09-27T12:59:48;95055.66;;;8.63;97.71
25080;BME280;13071;48.868;9.996;2022-09-27T13:02:38;95055.19;;;8.07;96.40
25080;BME280;13071;48.868;9.996;2022-09-27T13:05:28;95068.44;;;7.96;98.00
25080;BME280;13071;48.868;9.996;2022-09-27T13:08:10;95050.88;;;8.02;99.26
25080;BME280;13071;48.868;9.996;2022-09-27T13:10:53;95043.63;;;8.06;97.23
25080;BME280;13071;48.868;9.996;2022-09-27T13:13:26;95060.53;;;8.03;98.23
25080;BME280;13071;48.868;9.996;2022-09-27T13:15:56;95067.53;;;8.08;99.14
25080;BME280;13071;48.868;9.996;2022-09-27T13:18:48;95077.06;;;8.56;97.62
25080;BME280;13071;48.868;9.996;2022-09-27T13:24:29;95062.69;;;8.68;95.49
25080;BME280;13071;48.868;9.996;2022-09-27T13:26:56;95070.19;;;8.97;95.40